et de 6




meteocam Plus d'informations meteocam


vous aimez ? un don permettra le maintien du site
notre code QR

InfometeoRéférentiel météo en Belgique

Notre ancien site Autre version du site

Autre présentation du siteun concentré d'infos sur une page

orages previsions orages



Marées  

Valid CSS!


Rapports METAR à proximité

   
LFQQ - Lille/Lesquin, France
Distance: SE 22 km
Mise à jour: 16-07-2018 01:00
Clair  
Clair  
   Vent: NNE 7 km/h
Vent: NNE 7 km/h
Température: 22°C
Point de rosée: 11°C
Humidité: 50%
Baromètre: 1014 hPa
visibilité: More then 10 km
Détails des nuages: Clair m
LFQQ 152300Z AUTO 03004KT CAVOK 22/11 Q1014 NOSIG
EBFN - Koksijde (bel-Af, Belgium
Distance: NNO 42 km
Mise à jour: 16-07-2018 01:03
Nuageux  
Nuageux  
   Vent: varie 4 km/h
Vent: varie 4 km/h
Température: 19°C
Point de rosée: 12°C
Humidité: 64%
Baromètre: 1015 hPa
Nuages: Mostly Cloudy
visibilité: 7 km
Détails des nuages: Nuageux 7010.4 m
EBFN 152303Z AUTO VRB02KT 7000 BKN230/// 19/12 Q1015 WHT
EBOS - Oostende Airport, Belgium
Distance: N 53 km
Mise à jour: 16-07-2018 00:50
Clair  
Clair  
   Vent: Est 7 km/h
Vent: Est 7 km/h
Température: 19°C
Point de rosée: 13°C
Humidité: 68%
Baromètre: 1015 hPa
visibilité: More then 10 km
Détails des nuages: Clair m
EBOS 152250Z 10004KT CAVOK 19/13 Q1015 NOSIG
EBKT - Kortrijk, Belgium
Distance: ESE 66 km
Mise à jour: 01-01-1970 01:00
PAS actuel
  
  
   Vent: calme
Vent: calme
  

Script développé par  Saratoga-weather.org Adapté pour le modèle par  Weerstation Leuven

Vous trouverez notre info météo Également à:

UK Metoffice

European Weather Network

WeatherCloud

Weather Underground

AWEKAS

Citizen Weather Observer Program (CWOP)

HAMweather, WeatherForYou, PWS Weather

Équipement que nous utilisons:

Station de Météo
Oregon WMR 200

Programme Météo
cumulus

Ordinateur Météo
Zotac ID41

Fournisseur dl'accès Internet
Hébergé par

Oregon WMR 200

cumulus

Zotac ID41

Hébergé par